• Join FlightAware (Why Join?)
  • Login
  • US Flag 
01:59AM EST


 

Airport Tracker/Info


-or-


 

Live Flight TrackerFlight Track Log ✈ N36QM ✈ 14-Jul-2013 ✈ KRVL - KOXI

Flight Track Log - Related Links

Times and Time Zones

All times are in EDT time to prevent confusion due to time zone crossing. See the N36QM flight status page for this flight to view local times or setup timezone preferences in your user account.

Time Position Orientation Groundspeed Altitude Reporting Facility
EDT Latitude Longitude Course Direction KTS MPH feet Rate Location/Type
07:26PM 40.6939 -77.7703 303° West 161 185 3,800  Level New York Center
07:27PM 40.7083 -77.8100 296° West 136 157 4,500 660 Climbing New York Center
07:28PM 40.7119 -77.8542 276° West 131 151 5,200 720 Climbing New York Center
07:29PM 40.7172 -77.8900 281° West 123 142 5,800 660 Climbing Cleveland Center
07:30PM 40.7203 -77.9367 275° West 121 139 6,400 540 Climbing Cleveland Center
07:31PM 40.7044 -77.9587 303° West  Level FlightAware Approximate
07:31PM 40.7214 -77.9803 272° West 124 143 7,000  Level Cleveland Center
07:32PM 40.7264 -78.0267 278° West 124 143 7,500 480 Climbing Cleveland Center
07:33PM 40.7297 -78.0733 275° West 126 145 8,000 240 Climbing Cleveland Center
07:33PM 40.7347 -78.1222 278° West 143 165 8,000  Level Cleveland Center
07:34PM 40.7381 -78.1717 275° West 160 184 8,000  Level Cleveland Center
07:35PM 40.7478 -78.2369 281° West 164 189 8,000  Level Cleveland Center
07:37PM 40.7511 -78.2972 274° West 163 188 8,000  Level Cleveland Center
07:38PM 40.7606 -78.3572 282° West 162 186 8,000  Level Cleveland Center
07:39PM 40.7681 -78.4172 279° West 161 185 8,000  Level Cleveland Center
07:40PM 40.7711 -78.4775 274° West 163 188 8,000  Level Cleveland Center
07:41PM 40.7783 -78.5347 279° West 161 185 8,000  Level Cleveland Center
07:42PM 40.7836 -78.5894 277° West 161 185 8,000  Level Cleveland Center
07:42PM 40.7908 -78.6442 280° West 162 186 8,000 -60 Level Cleveland Center
07:43PM 40.7961 -78.7069 276° West 164 189 7,900  Descending Cleveland Center
07:44PM 40.8011 -78.7672 276° West 162 186 8,000  Climbing Cleveland Center
07:46PM 40.8103 -78.8219 282° West 162 186 8,000  Level Cleveland Center
07:47PM 40.8156 -78.8875 276° West 164 189 8,000  Level Cleveland Center
07:48PM 40.8225 -78.9450 279° West 163 188 8,000  Level Cleveland Center
07:49PM 40.8275 -78.9997 277° West 160 184 8,000  Level Cleveland Center
07:50PM 40.8325 -79.0600 276° West 162 186 8,000  Level Cleveland Center
07:51PM 40.8419 -79.1531 278° West 169 194 8,000  Level Cleveland Center
07:52PM 40.8489 -79.2106 279° West 169 194 8,100  Climbing Cleveland Center
07:53PM 40.8539 -79.2683 277° West 164 189 8,100 -60 Level Cleveland Center
07:54PM 40.8586 -79.3258 276° West 159 183 8,000 -60 Descending Cleveland Center
07:55PM 40.8656 -79.3833 279° West 159 183 8,000  Level Cleveland Center
07:56PM 40.8703 -79.4436 276° West 159 183 8,000  Level Cleveland Center
07:57PM 40.8750 -79.5011 276° West 159 183 8,000  Level Cleveland Center
07:58PM 40.8819 -79.5589 279° West 159 183 8,000  Level Cleveland Center
07:59PM 40.8886 -79.6164 279° West 159 183 8,000  Level Cleveland Center
08:00PM 40.8933 -79.6767 276° West 159 183 8,000  Level Cleveland Center
08:01PM 40.9000 -79.7342 279° West 159 183 8,000  Level Cleveland Center
08:02PM 40.9067 -79.7919 279° West 159 183 8,000  Level Cleveland Center
08:03PM 40.9111 -79.8522 276° West 159 183 8,000  Level Cleveland Center
08:04PM 40.9158 -79.9128 276° West 159 183 8,000  Level Cleveland Center
08:05PM 40.9222 -79.9703 278° West 159 183 8,000  Level Cleveland Center
08:07PM 40.9271 -80.0519 275° West  Level FlightAware Approximate
08:14PM 40.9508 -80.4608 275° West  Level FlightAware Approximate
08:15PM 40.9550 -80.5191 275° West  Level FlightAware Approximate
08:16PM 40.9591 -80.5774 275° West  Level FlightAware Approximate
08:17PM 40.9633 -80.6357 275° West  Level FlightAware Approximate
08:18PM 40.9676 -80.6939 277° West  Level FlightAware Approximate
08:19PM 40.9730 -80.7521 277° West  Level FlightAware Approximate
08:20PM 40.9782 -80.8102 277° West  Level FlightAware Approximate
08:21PM 40.9835 -80.8683 277° West  Level FlightAware Approximate
08:22PM 40.9888 -80.9265 277° West  Level FlightAware Approximate
08:23PM 40.9940 -80.9847 277° West  Level FlightAware Approximate
08:23PM 41.0067 -80.9819 277° West 153 176 8,000  Level Cleveland Center
08:23PM 41.0064 -81.0097 269° West 154 177 8,000  Level Cleveland Center
08:24PM 40.9991 -81.0428 277° West  Level FlightAware Approximate
08:24PM 41.0106 -81.0703 275° West 155 178 8,000  Level Cleveland Center
08:25PM 41.0043 -81.1010 277° West  Level FlightAware Approximate
08:25PM 41.0164 -81.1253 278° West 158 182 8,000  Level Cleveland Center
08:26PM 41.0094 -81.1592 277° West  Level FlightAware Approximate
08:26PM 41.0225 -81.1858 278° West 156 180 8,000  Level Cleveland Center
08:27PM 41.0145 -81.2174 277° West  Level FlightAware Approximate
08:27PM 41.0242 -81.2353 273° West 157 181 8,000  Level Cleveland Center
08:28PM 41.0196 -81.2756 277° West  Level FlightAware Approximate
08:28PM 41.0281 -81.2878 276° West 158 182 8,000  Level Cleveland Center
08:29PM 41.0339 -81.3539 277° West 157 181 8,000  Level Cleveland Center
08:30PM 41.0397 -81.4117 278° West 157 181 8,000  Level Cleveland Center
08:31PM 41.0414 -81.4642 272° West 158 182 8,000  Level Cleveland Center
08:32PM 41.0492 -81.5247 280° West 155 178 8,000  Level Cleveland Center
08:33PM 41.0508 -81.5769 272° West 156 180 8,000  Level Cleveland Center
08:34PM 41.0544 -81.6350 275° West 156 180 8,000  Level Cleveland Center
08:35PM 41.0603 -81.6928 278° West 156 180 8,000  Level Cleveland Center
08:36PM 41.0658 -81.7508 277° West 158 182 8,000  Level Cleveland Center
08:37PM 41.0675 -81.8058 272° West 155 178 8,000  Level Cleveland Center
08:38PM 41.0753 -81.8639 280° West 159 183 8,000  Level Cleveland Center
08:39PM 41.0806 -81.9383 275° West 156 180 8,000  Level Cleveland Center
08:40PM 41.0839 -81.9992 274° West 157 181 8,000  Level Cleveland Center
08:42PM 41.0861 -82.0587 273° West  Level FlightAware Approximate
08:49PM 41.1018 -82.4691 277° West  Level FlightAware Approximate
08:50PM 41.1072 -82.5273 277° West  Level FlightAware Approximate
08:51PM 41.1126 -82.5855 277° West  Level FlightAware Approximate
08:52PM 41.1179 -82.6438 277° West  Level FlightAware Approximate
08:53PM 41.1232 -82.7021 277° West  Level FlightAware Approximate
08:54PM 41.1285 -82.7603 277° West  Level FlightAware Approximate
08:55PM 41.1338 -82.8186 277° West  Level FlightAware Approximate
08:56PM 41.1390 -82.8769 277° West  Level FlightAware Approximate
08:57PM 41.1442 -82.9352 277° West  Level FlightAware Approximate
08:58PM 41.1494 -82.9935 277° West  Level FlightAware Approximate
08:59PM 41.1531 -83.0520 275° West  Level FlightAware Approximate
08:59PM 41.1611 -83.0719 274° West 159 183 8,000  Level Chicago Center
09:00PM 41.1565 -83.1106 274° West  Level FlightAware Approximate
09:00PM 41.1650 -83.1311 275° West 161 185 8,000  Level Chicago Center
09:01PM 41.1600 -83.1691 274° West  Level FlightAware Approximate
09:01PM 41.1706 -83.1894 277° West 161 185 8,000  Level Chicago Center
09:02PM 41.1633 -83.2277 274° West  Level FlightAware Approximate
09:02PM 41.1747 -83.2481 275° West 160 184 8,000  Level Chicago Center
09:03PM 41.1667 -83.2862 274° West  Level FlightAware Approximate
09:03PM 41.1772 -83.3089 273° West 162 186 8,000  Level Chicago Center
09:04PM 41.1700 -83.3448 274° West  Level FlightAware Approximate
09:04PM 41.1811 -83.3689 275° West 163 188 8,000  Level Chicago Center
09:05PM 41.1850 -83.4400 274° West 163 188 8,000  Level Chicago Center
09:06PM 41.1886 -83.5008 275° West 163 188 8,000  Level Chicago Center
09:07PM 41.1914 -83.5614 274° West 164 189 8,000  Level Chicago Center
09:08PM 41.1953 -83.6214 275° West 165 190 8,000  Level Chicago Center
09:09PM 41.1978 -83.6808 273° West 163 188 8,000  Level Chicago Center
09:10PM 41.2033 -83.7519 276° West 163 188 8,000  Level Chicago Center
09:11PM 41.2072 -83.8128 275° West 163 188 8,000  Level Chicago Center
09:12PM 41.2086 -83.8739 272° West 164 189 8,000  Level Chicago Center
09:13PM 41.2122 -83.9328 275° West 163 188 8,000  Level Chicago Center
09:14PM 41.2156 -83.9933 274° West 163 188 8,000  Level Chicago Center
09:15PM 41.2186 -84.0539 274° West 164 189 8,000  Level Chicago Center
09:17PM 41.2225 -84.1264 274° West 164 189 8,000  Level Chicago Center
09:18PM 41.2253 -84.1867 274° West 164 189 8,000  Level Chicago Center
09:19PM 41.2297 -84.2486 275° West 166 191 8,000  Level Chicago Center
09:20PM 41.2317 -84.3097 272° West 166 191 8,000  Level Chicago Center
09:21PM 41.2339 -84.3694 273° West 165 190 8,000  Level Chicago Center
09:22PM 41.2375 -84.4292 275° West 164 189 8,000  Level Chicago Center
09:23PM 41.2425 -84.5050 275° West 168 193 8,000  Level Chicago Center
09:24PM 41.2458 -84.5650 274° West 167 192 8,000  Level Chicago Center
09:25PM 41.2481 -84.6256 273° West 164 189 8,000  Level Chicago Center
09:26PM 41.2500 -84.6856 272° West 164 189 8,000  Level Chicago Center
09:27PM 41.2528 -84.7467 273° West 165 190 8,000  Level Chicago Center
09:28PM 41.2567 -84.8089 275° West 166 191 8,000  Level Chicago Center
09:29PM 41.2589 -84.8811 272° West 166 191 8,000  Level Chicago Center
09:30PM 41.2617 -84.9428 273° West 166 191 8,000  Level Chicago Center
09:31PM 41.2647 -85.0053 274° West 168 193 8,000  Level Chicago Center
09:32PM 41.2675 -85.0669 273° West 168 193 8,000  Level Chicago Center
09:33PM 41.2703 -85.1294 273° West 169 194 8,000  Level Chicago Center
09:34PM 41.2736 -85.1911 274° West 168 193 8,100  Climbing Chicago Center
09:35PM 41.2767 -85.2531 274° West 167 192 8,000  Descending Chicago Center
09:36PM 41.2792 -85.3283 273° West 169 194 8,100  Climbing Chicago Center
09:37PM 41.2819 -85.3911 273° West 169 194 8,100  Level Chicago Center
09:38PM 41.2850 -85.4531 274° West 169 194 8,100  Level Chicago Center
09:39PM 41.2869 -85.5147 272° West 167 192 8,100  Level Chicago Center
09:40PM 41.2897 -85.5761 273° West 166 191 8,100  Level Chicago Center
09:41PM 41.2919 -85.6383 273° West 167 192 8,100  Level Chicago Center
09:42PM 41.2942 -85.7006 273° West 169 194 8,100  Level Chicago Center
09:43PM 41.2978 -85.7744 274° West 167 192 8,100 -120 Level Chicago Center
09:44PM 41.2986 -85.8372 271° West 169 194 7,900 -60 Descending Chicago Center
09:45PM 41.3017 -85.8992 274° West 168 193 8,000  Climbing Chicago Center
09:46PM 41.3042 -85.9608 273° West 168 193 8,000  Level Chicago Center
09:48PM 41.3078 -86.0233 274° West 170 196 8,000  Level Chicago Center
09:49PM 41.3092 -86.0842 272° West 165 190 8,000 -180 Level Chicago Center
09:50PM 41.3114 -86.1475 273° West 170 196 7,700 -660 Descending Chicago Center
09:51PM 41.3147 -86.2308 273° West 188 216 6,700 -900 Descending Chicago Center
09:52PM 41.3181 -86.2972 274° West 181 208 5,900 -900 Descending Chicago Center
09:53PM 41.3186 -86.3628 271° West 177 204 4,900 -780 Descending Chicago Center
09:54PM 41.3222 -86.4253 274° West 179 206 4,400 -540 Descending Chicago Center